AAL900 KIND-KPIE
Flight info
| Callsign | AAL900 |
|---|---|
| Flight time | 1h 54m |
| Altitude | 35000 |
| Route | DAWNN1 IIU DCT VXV/N0455F360 DCT THRSR DCT HONID BANGZ2 |
| Aircraft | A21N/M-SDE2E3FGHIRWXY/LB1 |
Departure
| Time | 2026-04-20 12:44 |
|---|---|
| Airport | Indianapolis International Airport (KIND) |
Arrival
| Time | 2026-04-20 14:39 |
|---|---|
| Airport | St. Petersburg Clearwater International Airport (KPIE) |
| Time | Latitude | Longitude | Altitude | Speed | Heading |
|---|---|---|---|---|---|
| 2026-04-20 12:20 | 39.71788 | -86.29777 | 774 ft | 0 kts | 140° |
| 2026-04-20 12:34 | 39.71791 | -86.29780 | 774 ft | 1 kts | 140° |
| 2026-04-20 12:34 | 39.71804 | -86.29797 | 773 ft | 3 kts | 126° |
| 2026-04-20 12:35 | 39.71804 | -86.29821 | 773 ft | 2 kts | 60° |
| 2026-04-20 12:35 | 39.71801 | -86.29826 | 773 ft | 0 kts | 43° |
| 2026-04-20 12:35 | 39.71802 | -86.29826 | 773 ft | 0 kts | 43° |
| 2026-04-20 12:36 | 39.71807 | -86.29820 | 773 ft | 1 kts | 38° |
| 2026-04-20 12:36 | 39.71820 | -86.29808 | 773 ft | 2 kts | 35° |
| 2026-04-20 12:36 | 39.71841 | -86.29790 | 774 ft | 4 kts | 34° |
| 2026-04-20 12:36 | 39.71869 | -86.29765 | 774 ft | 5 kts | 35° |
| 2026-04-20 12:37 | 39.71904 | -86.29732 | 775 ft | 6 kts | 39° |
| 2026-04-20 12:37 | 39.71936 | -86.29685 | 776 ft | 7 kts | 69° |
| 2026-04-20 12:37 | 39.71920 | -86.29607 | 776 ft | 11 kts | 125° |
| 2026-04-20 12:37 | 39.71859 | -86.29508 | 776 ft | 16 kts | 130° |
| 2026-04-20 12:38 | 39.71777 | -86.29391 | 778 ft | 18 kts | 135° |
| 2026-04-20 12:38 | 39.71676 | -86.29274 | 781 ft | 19 kts | 140° |
| 2026-04-20 12:38 | 39.71556 | -86.29237 | 782 ft | 18 kts | 197° |
| 2026-04-20 12:38 | 39.71441 | -86.29305 | 781 ft | 18 kts | 214° |
| 2026-04-20 12:39 | 39.71227 | -86.29391 | 784 ft | 15 kts | 173° |
| 2026-04-20 12:39 | 39.71126 | -86.29394 | 786 ft | 14 kts | 194° |
| 2026-04-20 12:39 | 39.71031 | -86.29459 | 786 ft | 16 kts | 221° |
| 2026-04-20 12:40 | 39.70943 | -86.29572 | 786 ft | 19 kts | 225° |
| 2026-04-20 12:40 | 39.70842 | -86.29700 | 785 ft | 21 kts | 225° |
| 2026-04-20 12:40 | 39.70732 | -86.29839 | 784 ft | 22 kts | 225° |
| 2026-04-20 12:40 | 39.70616 | -86.29988 | 784 ft | 23 kts | 225° |
| 2026-04-20 12:41 | 39.70496 | -86.30141 | 784 ft | 24 kts | 224° |
| 2026-04-20 12:41 | 39.70382 | -86.30286 | 785 ft | 22 kts | 224° |
| 2026-04-20 12:41 | 39.70275 | -86.30424 | 785 ft | 21 kts | 225° |
| 2026-04-20 12:41 | 39.70187 | -86.30535 | 784 ft | 10 kts | 224° |
| 2026-04-20 12:42 | 39.70126 | -86.30550 | 785 ft | 7 kts | 152° |
| 2026-04-20 12:42 | 39.70097 | -86.30519 | 787 ft | 4 kts | 136° |
| 2026-04-20 12:42 | 39.70078 | -86.30495 | 787 ft | 3 kts | 135° |
| 2026-04-20 12:42 | 39.70066 | -86.30479 | 788 ft | 1 kts | 135° |
| 2026-04-20 12:43 | 39.70047 | -86.30454 | 789 ft | 7 kts | 127° |
| 2026-04-20 12:43 | 39.70065 | -86.30389 | 790 ft | 8 kts | 43° |
| 2026-04-20 12:43 | 39.70090 | -86.30359 | 790 ft | 0 kts | 44° |
| 2026-04-20 12:43 | 39.70119 | -86.30321 | 790 ft | 28 kts | 45° |
| 2026-04-20 12:44 | 39.70448 | -86.29903 | 790 ft | 102 kts | 45° |
| 2026-04-20 12:44 | 39.71115 | -86.29054 | 793 ft | 162 kts | 44° |
| 2026-04-20 12:44 | 39.71960 | -86.27979 | 1276 ft | 173 kts | 45° |
| 2026-04-20 12:44 | 39.72818 | -86.26882 | 1986 ft | 177 kts | 44° |
| 2026-04-20 12:45 | 39.73597 | -86.25672 | 2717 ft | 179 kts | 66° |
| 2026-04-20 12:45 | 39.73700 | -86.24030 | 3210 ft | 193 kts | 103° |
| 2026-04-20 12:45 | 39.73093 | -86.22415 | 3700 ft | 209 kts | 122° |
| 2026-04-20 12:45 | 39.72121 | -86.20890 | 4122 ft | 228 kts | 136° |
| 2026-04-20 12:46 | 39.70720 | -86.19705 | 4433 ft | 255 kts | 155° |
| 2026-04-20 12:46 | 39.68951 | -86.19074 | 4843 ft | 276 kts | 177° |
| 2026-04-20 12:46 | 39.67016 | -86.19190 | 5583 ft | 282 kts | 190° |
| 2026-04-20 12:46 | 39.65082 | -86.19647 | 6483 ft | 282 kts | 197° |
| 2026-04-20 12:47 | 39.63184 | -86.20316 | 7326 ft | 285 kts | 202° |
| 2026-04-20 12:47 | 39.61271 | -86.21091 | 8106 ft | 289 kts | 205° |
| 2026-04-20 12:47 | 39.59341 | -86.21921 | 8908 ft | 293 kts | 206° |
| 2026-04-20 12:47 | 39.57394 | -86.22722 | 9703 ft | 297 kts | 206° |
| 2026-04-20 12:48 | 39.55362 | -86.23567 | 10195 ft | 312 kts | 207° |
| 2026-04-20 12:48 | 39.53268 | -86.24468 | 10635 ft | 327 kts | 207° |
| 2026-04-20 12:48 | 39.51020 | -86.25423 | 10994 ft | 346 kts | 206° |
| 2026-04-20 12:48 | 39.48679 | -86.26372 | 11458 ft | 359 kts | 205° |
| 2026-04-20 12:49 | 39.46282 | -86.27322 | 12154 ft | 364 kts | 205° |
| 2026-04-20 12:49 | 39.43826 | -86.28301 | 12871 ft | 368 kts | 206° |
| 2026-04-20 12:49 | 39.41366 | -86.29293 | 13529 ft | 373 kts | 206° |
| 2026-04-20 12:49 | 39.38888 | -86.30298 | 14174 ft | 378 kts | 206° |
| 2026-04-20 12:50 | 39.36294 | -86.31112 | 14833 ft | 391 kts | 197° |
| 2026-04-20 12:50 | 39.33538 | -86.31377 | 15481 ft | 403 kts | 186° |
| 2026-04-20 12:50 | 39.30698 | -86.31163 | 16101 ft | 410 kts | 181° |
| 2026-04-20 12:50 | 39.27851 | -86.30819 | 16718 ft | 415 kts | 181° |
| 2026-04-20 12:51 | 39.24951 | -86.30450 | 17378 ft | 418 kts | 181° |
| 2026-04-20 12:51 | 39.22084 | -86.30097 | 18020 ft | 420 kts | 181° |
| 2026-04-20 12:51 | 39.19139 | -86.29751 | 18606 ft | 422 kts | 181° |
| 2026-04-20 12:51 | 39.16177 | -86.29415 | 19186 ft | 425 kts | 181° |
| 2026-04-20 12:52 | 39.13237 | -86.29085 | 19723 ft | 429 kts | 181° |
| 2026-04-20 12:52 | 39.10219 | -86.28751 | 20268 ft | 433 kts | 181° |
| 2026-04-20 12:52 | 39.07165 | -86.28412 | 20814 ft | 437 kts | 181° |
| 2026-04-20 12:52 | 39.04133 | -86.28076 | 21295 ft | 441 kts | 181° |
| 2026-04-20 12:53 | 39.01031 | -86.27734 | 21768 ft | 446 kts | 181° |
| 2026-04-20 12:53 | 38.97904 | -86.27389 | 22267 ft | 449 kts | 181° |
| 2026-04-20 12:53 | 38.94759 | -86.27041 | 22789 ft | 452 kts | 181° |
| 2026-04-20 12:53 | 38.91570 | -86.26689 | 23286 ft | 455 kts | 181° |
| 2026-04-20 12:54 | 38.88396 | -86.26338 | 23755 ft | 458 kts | 180° |
| 2026-04-20 12:54 | 38.85180 | -86.25983 | 24184 ft | 461 kts | 181° |
| 2026-04-20 12:54 | 38.81981 | -86.25629 | 24602 ft | 464 kts | 180° |
| 2026-04-20 12:54 | 38.78695 | -86.25267 | 25012 ft | 467 kts | 181° |
| 2026-04-20 12:55 | 38.75405 | -86.24902 | 25444 ft | 469 kts | 181° |
| 2026-04-20 12:55 | 38.72135 | -86.24543 | 25856 ft | 472 kts | 181° |
| 2026-04-20 12:55 | 38.68865 | -86.24184 | 26243 ft | 474 kts | 181° |
| 2026-04-20 12:55 | 38.65503 | -86.23816 | 26610 ft | 477 kts | 181° |
| 2026-04-20 12:56 | 38.62178 | -86.23452 | 26988 ft | 479 kts | 181° |
| 2026-04-20 12:56 | 38.58857 | -86.22813 | 27296 ft | 490 kts | 169° |
| 2026-04-20 12:56 | 38.55693 | -86.20980 | 27602 ft | 500 kts | 149° |
| 2026-04-20 12:56 | 38.53082 | -86.18069 | 27949 ft | 503 kts | 133° |
| 2026-04-20 12:57 | 38.50769 | -86.14755 | 28285 ft | 505 kts | 130° |
| 2026-04-20 12:57 | 38.48452 | -86.11326 | 28581 ft | 508 kts | 130° |
| 2026-04-20 12:57 | 38.46137 | -86.07930 | 28890 ft | 510 kts | 131° |
| 2026-04-20 12:57 | 38.43767 | -86.04508 | 29186 ft | 512 kts | 131° |
| 2026-04-20 12:58 | 38.41404 | -86.01142 | 29477 ft | 514 kts | 132° |
| 2026-04-20 12:58 | 38.39011 | -85.97761 | 29890 ft | 513 kts | 132° |
| 2026-04-20 12:58 | 38.36614 | -85.94394 | 30372 ft | 511 kts | 133° |
| 2026-04-20 12:58 | 38.34245 | -85.91071 | 30801 ft | 509 kts | 133° |
| 2026-04-20 12:59 | 38.31849 | -85.87720 | 31139 ft | 509 kts | 133° |
| 2026-04-20 12:59 | 38.29482 | -85.84409 | 31456 ft | 509 kts | 133° |
| 2026-04-20 12:59 | 38.27108 | -85.81087 | 31776 ft | 508 kts | 133° |
| 2026-04-20 12:59 | 38.24743 | -85.77785 | 32083 ft | 508 kts | 133° |
| 2026-04-20 13:00 | 38.22372 | -85.74478 | 32365 ft | 508 kts | 133° |
| 2026-04-20 13:00 | 38.19986 | -85.71150 | 32630 ft | 508 kts | 133° |
| 2026-04-20 13:00 | 38.17596 | -85.67827 | 32897 ft | 509 kts | 133° |
| 2026-04-20 13:00 | 38.15219 | -85.64517 | 33124 ft | 508 kts | 134° |
| 2026-04-20 13:01 | 38.12785 | -85.61340 | 33338 ft | 507 kts | 138° |
| 2026-04-20 13:01 | 38.10168 | -85.58329 | 33517 ft | 507 kts | 142° |
| 2026-04-20 13:01 | 38.07395 | -85.55547 | 33675 ft | 506 kts | 147° |
| 2026-04-20 13:01 | 38.04489 | -85.53024 | 33834 ft | 505 kts | 152° |
| 2026-04-20 13:02 | 38.01527 | -85.50687 | 33987 ft | 506 kts | 152° |
| 2026-04-20 13:02 | 37.98526 | -85.48351 | 34124 ft | 508 kts | 153° |
| 2026-04-20 13:02 | 37.95511 | -85.46004 | 34258 ft | 509 kts | 152° |
| 2026-04-20 13:02 | 37.92500 | -85.43655 | 34383 ft | 511 kts | 152° |
| 2026-04-20 13:03 | 37.89480 | -85.41289 | 34519 ft | 512 kts | 152° |
| 2026-04-20 13:03 | 37.86444 | -85.38909 | 34660 ft | 512 kts | 152° |
| 2026-04-20 13:03 | 37.83428 | -85.36542 | 34800 ft | 513 kts | 152° |
| 2026-04-20 13:03 | 37.80380 | -85.34148 | 34905 ft | 513 kts | 153° |
| 2026-04-20 13:04 | 37.77336 | -85.31760 | 35034 ft | 514 kts | 153° |
| 2026-04-20 13:04 | 37.74294 | -85.29375 | 35157 ft | 514 kts | 153° |
| 2026-04-20 13:04 | 37.71255 | -85.26996 | 35283 ft | 515 kts | 153° |
| 2026-04-20 13:05 | 37.65152 | -85.22226 | 35321 ft | 516 kts | 153° |
| 2026-04-20 13:05 | 37.59060 | -85.17476 | 35313 ft | 516 kts | 153° |
| 2026-04-20 13:06 | 37.52904 | -85.12682 | 35307 ft | 516 kts | 153° |
| 2026-04-20 13:06 | 37.46823 | -85.07955 | 35303 ft | 516 kts | 153° |
| 2026-04-20 13:07 | 37.40665 | -85.03176 | 35311 ft | 515 kts | 153° |
| 2026-04-20 13:07 | 37.34539 | -84.98436 | 35308 ft | 515 kts | 153° |
| 2026-04-20 13:08 | 37.28437 | -84.93722 | 35306 ft | 516 kts | 153° |
| 2026-04-20 13:08 | 37.22318 | -84.89004 | 35299 ft | 516 kts | 153° |
| 2026-04-20 13:09 | 37.16182 | -84.84281 | 35299 ft | 516 kts | 153° |
| 2026-04-20 13:09 | 37.10084 | -84.79598 | 35298 ft | 516 kts | 153° |
| 2026-04-20 13:10 | 37.03934 | -84.74880 | 35316 ft | 515 kts | 154° |
| 2026-04-20 13:10 | 36.97848 | -84.70221 | 35313 ft | 515 kts | 154° |
| 2026-04-20 13:11 | 36.91717 | -84.65540 | 35319 ft | 515 kts | 154° |
| 2026-04-20 13:11 | 36.85579 | -84.60861 | 35320 ft | 517 kts | 154° |
| 2026-04-20 13:12 | 36.79455 | -84.56203 | 35315 ft | 517 kts | 154° |
| 2026-04-20 13:12 | 36.73269 | -84.51506 | 35313 ft | 518 kts | 154° |
| 2026-04-20 13:13 | 36.67113 | -84.46837 | 35312 ft | 516 kts | 154° |
| 2026-04-20 13:13 | 36.60939 | -84.42168 | 35308 ft | 517 kts | 154° |
| 2026-04-20 13:14 | 36.54751 | -84.37497 | 35306 ft | 518 kts | 155° |
| 2026-04-20 13:14 | 36.48616 | -84.32871 | 35309 ft | 517 kts | 155° |
| 2026-04-20 13:15 | 36.42435 | -84.28220 | 35304 ft | 517 kts | 155° |
| 2026-04-20 13:15 | 36.36297 | -84.23612 | 35289 ft | 518 kts | 156° |
| 2026-04-20 13:16 | 36.30102 | -84.18968 | 35282 ft | 517 kts | 155° |
| 2026-04-20 13:16 | 36.23944 | -84.14362 | 35281 ft | 516 kts | 156° |
| 2026-04-20 13:17 | 36.17774 | -84.09758 | 35285 ft | 518 kts | 156° |
| 2026-04-20 13:17 | 36.11595 | -84.05145 | 35292 ft | 517 kts | 156° |
| 2026-04-20 13:18 | 36.05435 | -84.00565 | 35306 ft | 517 kts | 156° |
| 2026-04-20 13:18 | 35.99239 | -83.95966 | 35315 ft | 517 kts | 156° |
| 2026-04-20 13:19 | 35.92767 | -83.92347 | 35313 ft | 497 kts | 173° |
| 2026-04-20 13:19 | 35.89451 | -83.91443 | 35316 ft | 484 kts | 182° |
| 2026-04-20 13:19 | 35.86111 | -83.91106 | 35316 ft | 472 kts | 190° |
| 2026-04-20 13:19 | 35.82881 | -83.91302 | 35317 ft | 461 kts | 198° |
| 2026-04-20 13:20 | 35.79729 | -83.91947 | 35321 ft | 454 kts | 202° |
| 2026-04-20 13:20 | 35.73537 | -83.93515 | 35320 ft | 452 kts | 203° |
| 2026-04-20 13:21 | 35.67342 | -83.95074 | 35319 ft | 451 kts | 203° |
| 2026-04-20 13:21 | 35.61198 | -83.96584 | 35318 ft | 451 kts | 203° |
| 2026-04-20 13:22 | 35.55025 | -83.98086 | 35319 ft | 450 kts | 203° |
| 2026-04-20 13:22 | 35.48855 | -83.99580 | 35321 ft | 450 kts | 203° |
| 2026-04-20 13:22 | 35.45804 | -84.00316 | 35190 ft | 450 kts | 203° |
| 2026-04-20 13:23 | 35.42686 | -84.01071 | 35252 ft | 453 kts | 203° |
| 2026-04-20 13:23 | 35.36486 | -84.02567 | 35311 ft | 453 kts | 203° |
| 2026-04-20 13:24 | 35.30285 | -84.04057 | 35314 ft | 451 kts | 203° |
| 2026-04-20 13:24 | 35.24137 | -84.05536 | 35326 ft | 452 kts | 203° |
| 2026-04-20 13:25 | 35.17951 | -84.07018 | 35335 ft | 449 kts | 203° |
| 2026-04-20 13:25 | 35.11808 | -84.08490 | 35317 ft | 450 kts | 203° |
| 2026-04-20 13:26 | 35.05640 | -84.09968 | 35324 ft | 448 kts | 203° |
| 2026-04-20 13:26 | 34.99533 | -84.11423 | 35330 ft | 447 kts | 204° |
| 2026-04-20 13:27 | 34.93398 | -84.12888 | 35319 ft | 449 kts | 204° |
| 2026-04-20 13:27 | 34.87284 | -84.14346 | 35314 ft | 448 kts | 204° |
| 2026-04-20 13:28 | 34.81141 | -84.15805 | 35313 ft | 447 kts | 204° |
| 2026-04-20 13:28 | 34.75006 | -84.17261 | 35306 ft | 447 kts | 204° |
| 2026-04-20 13:29 | 34.68874 | -84.18715 | 35307 ft | 448 kts | 204° |
| 2026-04-20 13:29 | 34.62729 | -84.20171 | 35317 ft | 449 kts | 204° |
| 2026-04-20 13:30 | 34.56621 | -84.21616 | 35316 ft | 450 kts | 204° |
| 2026-04-20 13:30 | 34.50478 | -84.23062 | 35316 ft | 447 kts | 204° |
| 2026-04-20 13:31 | 34.44325 | -84.24513 | 35322 ft | 448 kts | 204° |
| 2026-04-20 13:31 | 34.38215 | -84.25950 | 35330 ft | 448 kts | 204° |
| 2026-04-20 13:32 | 34.32062 | -84.27396 | 35334 ft | 448 kts | 204° |
| 2026-04-20 13:32 | 34.25912 | -84.28838 | 35333 ft | 448 kts | 205° |
| 2026-04-20 13:33 | 34.19768 | -84.30277 | 35330 ft | 447 kts | 204° |
| 2026-04-20 13:33 | 34.13682 | -84.31701 | 35330 ft | 446 kts | 205° |
| 2026-04-20 13:34 | 34.07552 | -84.33131 | 35331 ft | 448 kts | 205° |
| 2026-04-20 13:34 | 34.01437 | -84.34560 | 35334 ft | 447 kts | 205° |
| 2026-04-20 13:35 | 33.95314 | -84.35986 | 35336 ft | 447 kts | 205° |
| 2026-04-20 13:35 | 33.89210 | -84.37403 | 35332 ft | 447 kts | 205° |
| 2026-04-20 13:36 | 33.83073 | -84.38829 | 35334 ft | 445 kts | 205° |
| 2026-04-20 13:36 | 33.76980 | -84.40245 | 35333 ft | 446 kts | 205° |
| 2026-04-20 13:37 | 33.70840 | -84.41666 | 35332 ft | 447 kts | 205° |
| 2026-04-20 13:37 | 33.64631 | -84.42929 | 35332 ft | 454 kts | 201° |
| 2026-04-20 13:38 | 33.58245 | -84.43414 | 35334 ft | 468 kts | 194° |
| 2026-04-20 13:38 | 33.51668 | -84.43294 | 35337 ft | 470 kts | 193° |
| 2026-04-20 13:39 | 33.45107 | -84.43143 | 35339 ft | 470 kts | 193° |
| 2026-04-20 13:39 | 33.38594 | -84.43002 | 35338 ft | 468 kts | 193° |
| 2026-04-20 13:40 | 33.32036 | -84.42867 | 35338 ft | 470 kts | 193° |
| 2026-04-20 13:40 | 33.25493 | -84.42734 | 35339 ft | 469 kts | 193° |
| 2026-04-20 13:41 | 33.18956 | -84.42599 | 35340 ft | 469 kts | 193° |
| 2026-04-20 13:41 | 33.12413 | -84.42464 | 35341 ft | 467 kts | 193° |
| 2026-04-20 13:42 | 33.05891 | -84.42331 | 35345 ft | 467 kts | 193° |
| 2026-04-20 13:42 | 32.96079 | -84.42136 | 35349 ft | 470 kts | 193° |
| 2026-04-20 13:43 | 32.89508 | -84.42003 | 35350 ft | 469 kts | 193° |
| 2026-04-20 13:43 | 32.82977 | -84.41871 | 35346 ft | 469 kts | 193° |
| 2026-04-20 13:44 | 32.76414 | -84.41737 | 35345 ft | 468 kts | 193° |
| 2026-04-20 13:44 | 32.69881 | -84.41605 | 35342 ft | 468 kts | 193° |
| 2026-04-20 13:45 | 32.63320 | -84.41474 | 35340 ft | 469 kts | 193° |
| 2026-04-20 13:45 | 32.56717 | -84.41342 | 35335 ft | 470 kts | 192° |
| 2026-04-20 13:46 | 32.50135 | -84.41209 | 35329 ft | 469 kts | 192° |
| 2026-04-20 13:46 | 32.43569 | -84.41077 | 35327 ft | 470 kts | 192° |
| 2026-04-20 13:47 | 32.36919 | -84.40945 | 35325 ft | 471 kts | 192° |
| 2026-04-20 13:47 | 32.30342 | -84.40813 | 35323 ft | 470 kts | 192° |
| 2026-04-20 13:48 | 32.23737 | -84.40680 | 35320 ft | 471 kts | 192° |
| 2026-04-20 13:48 | 32.17157 | -84.40550 | 35320 ft | 470 kts | 192° |
| 2026-04-20 13:49 | 32.10630 | -84.40416 | 35322 ft | 468 kts | 192° |
| 2026-04-20 13:49 | 32.04117 | -84.40291 | 35324 ft | 470 kts | 192° |
| 2026-04-20 13:50 | 31.97564 | -84.40159 | 35321 ft | 468 kts | 192° |
| 2026-04-20 13:50 | 31.91008 | -84.40030 | 35315 ft | 469 kts | 192° |
| 2026-04-20 13:51 | 31.84461 | -84.39899 | 35322 ft | 470 kts | 192° |
| 2026-04-20 13:51 | 31.77888 | -84.39769 | 35317 ft | 471 kts | 192° |
| 2026-04-20 13:52 | 31.71323 | -84.39640 | 35313 ft | 471 kts | 192° |
| 2026-04-20 13:52 | 31.61738 | -84.39484 | 35312 ft | 467 kts | 193° |
| 2026-04-20 13:53 | 31.48716 | -84.39525 | 35315 ft | 468 kts | 193° |
| 2026-04-20 13:53 | 31.35716 | -84.39548 | 35312 ft | 468 kts | 193° |
| 2026-04-20 13:54 | 31.22703 | -84.39568 | 35304 ft | 467 kts | 193° |
| 2026-04-20 13:54 | 31.12943 | -84.39582 | 35299 ft | 468 kts | 193° |
| 2026-04-20 13:55 | 31.06397 | -84.39593 | 35295 ft | 468 kts | 193° |
| 2026-04-20 13:55 | 30.99922 | -84.39600 | 35290 ft | 467 kts | 193° |
| 2026-04-20 13:56 | 30.93437 | -84.39611 | 35291 ft | 466 kts | 193° |
| 2026-04-20 13:56 | 30.86942 | -84.39619 | 35290 ft | 467 kts | 193° |
| 2026-04-20 13:57 | 30.80433 | -84.39628 | 35291 ft | 465 kts | 193° |
| 2026-04-20 13:57 | 30.73941 | -84.39636 | 35285 ft | 468 kts | 193° |
| 2026-04-20 13:58 | 30.67472 | -84.39645 | 35277 ft | 467 kts | 193° |
| 2026-04-20 13:58 | 30.60958 | -84.39656 | 35282 ft | 469 kts | 193° |
| 2026-04-20 13:59 | 30.54424 | -84.39662 | 35279 ft | 468 kts | 192° |
| 2026-04-20 13:59 | 30.47907 | -84.39670 | 35277 ft | 468 kts | 193° |
| 2026-04-20 14:00 | 30.41370 | -84.39625 | 35275 ft | 473 kts | 189° |
| 2026-04-20 14:00 | 30.38047 | -84.39184 | 35277 ft | 485 kts | 181° |
| 2026-04-20 14:00 | 30.34732 | -84.38253 | 35273 ft | 498 kts | 174° |
| 2026-04-20 14:01 | 30.31448 | -84.36796 | 35268 ft | 511 kts | 165° |
| 2026-04-20 14:01 | 30.28283 | -84.34812 | 35266 ft | 525 kts | 156° |
| 2026-04-20 14:01 | 30.22499 | -84.29516 | 35270 ft | 534 kts | 145° |
| 2026-04-20 14:02 | 30.16907 | -84.23803 | 35264 ft | 536 kts | 146° |
| 2026-04-20 14:02 | 30.11285 | -84.18157 | 35265 ft | 534 kts | 146° |
| 2026-04-20 14:03 | 30.05645 | -84.12586 | 35262 ft | 535 kts | 146° |
| 2026-04-20 14:03 | 29.99975 | -84.06995 | 35242 ft | 533 kts | 146° |
| 2026-04-20 14:04 | 29.94342 | -84.01453 | 35251 ft | 533 kts | 146° |
| 2026-04-20 14:04 | 29.88651 | -83.95867 | 35480 ft | 533 kts | 146° |
| 2026-04-20 14:05 | 29.85833 | -83.93112 | 35316 ft | 531 kts | 148° |
| 2026-04-20 14:05 | 29.82933 | -83.90492 | 34888 ft | 526 kts | 150° |
| 2026-04-20 14:05 | 29.79926 | -83.88107 | 34071 ft | 526 kts | 155° |
| 2026-04-20 14:05 | 29.76803 | -83.85956 | 33099 ft | 522 kts | 159° |
| 2026-04-20 14:06 | 29.73654 | -83.83944 | 31979 ft | 524 kts | 158° |
| 2026-04-20 14:06 | 29.70430 | -83.81907 | 30984 ft | 521 kts | 158° |
| 2026-04-20 14:06 | 29.67287 | -83.79908 | 30395 ft | 515 kts | 158° |
| 2026-04-20 14:06 | 29.64164 | -83.77908 | 29850 ft | 509 kts | 158° |
| 2026-04-20 14:07 | 29.61086 | -83.75928 | 29316 ft | 503 kts | 157° |
| 2026-04-20 14:07 | 29.58059 | -83.73981 | 28783 ft | 498 kts | 156° |
| 2026-04-20 14:07 | 29.55059 | -83.72051 | 28257 ft | 492 kts | 157° |
| 2026-04-20 14:07 | 29.52082 | -83.70134 | 27790 ft | 485 kts | 157° |
| 2026-04-20 14:08 | 29.49146 | -83.68246 | 27482 ft | 482 kts | 157° |
| 2026-04-20 14:08 | 29.46215 | -83.66370 | 27171 ft | 481 kts | 157° |
| 2026-04-20 14:08 | 29.43298 | -83.64503 | 26855 ft | 479 kts | 157° |
| 2026-04-20 14:08 | 29.40364 | -83.62622 | 26520 ft | 475 kts | 157° |
| 2026-04-20 14:09 | 29.37479 | -83.60794 | 26184 ft | 472 kts | 158° |
| 2026-04-20 14:09 | 29.34554 | -83.59188 | 25792 ft | 465 kts | 163° |
| 2026-04-20 14:09 | 29.31551 | -83.57875 | 25341 ft | 457 kts | 168° |
| 2026-04-20 14:09 | 29.28523 | -83.56808 | 24877 ft | 451 kts | 170° |
| 2026-04-20 14:10 | 29.25537 | -83.55811 | 24430 ft | 447 kts | 171° |
| 2026-04-20 14:10 | 29.22547 | -83.54820 | 23964 ft | 443 kts | 171° |
| 2026-04-20 14:10 | 29.19569 | -83.53826 | 23484 ft | 440 kts | 170° |
| 2026-04-20 14:10 | 29.16616 | -83.52837 | 22998 ft | 437 kts | 170° |
| 2026-04-20 14:11 | 29.13731 | -83.51865 | 22561 ft | 433 kts | 170° |
| 2026-04-20 14:11 | 29.10827 | -83.50885 | 22081 ft | 430 kts | 169° |
| 2026-04-20 14:11 | 29.07936 | -83.49909 | 21611 ft | 427 kts | 169° |
| 2026-04-20 14:11 | 29.05079 | -83.48945 | 21133 ft | 425 kts | 169° |
| 2026-04-20 14:12 | 29.02277 | -83.48001 | 20676 ft | 421 kts | 169° |
| 2026-04-20 14:12 | 28.99461 | -83.47037 | 20211 ft | 419 kts | 167° |
| 2026-04-20 14:12 | 28.96701 | -83.45915 | 19753 ft | 418 kts | 163° |
| 2026-04-20 14:12 | 28.94013 | -83.44594 | 19275 ft | 417 kts | 160° |
| 2026-04-20 14:13 | 28.91382 | -83.43237 | 18812 ft | 414 kts | 159° |
| 2026-04-20 14:13 | 28.88771 | -83.41878 | 18340 ft | 411 kts | 159° |
| 2026-04-20 14:13 | 28.86150 | -83.40516 | 17876 ft | 407 kts | 159° |
| 2026-04-20 14:13 | 28.83582 | -83.39182 | 17419 ft | 404 kts | 159° |
| 2026-04-20 14:14 | 28.81007 | -83.37852 | 16943 ft | 401 kts | 159° |
| 2026-04-20 14:14 | 28.78484 | -83.36547 | 16463 ft | 399 kts | 158° |
| 2026-04-20 14:14 | 28.75950 | -83.35241 | 15967 ft | 396 kts | 158° |
| 2026-04-20 14:14 | 28.73436 | -83.33944 | 15487 ft | 394 kts | 158° |
| 2026-04-20 14:15 | 28.70940 | -83.32658 | 14999 ft | 392 kts | 158° |
| 2026-04-20 14:15 | 28.68477 | -83.31390 | 14526 ft | 389 kts | 158° |
| 2026-04-20 14:15 | 28.66004 | -83.30116 | 14036 ft | 386 kts | 158° |
| 2026-04-20 14:15 | 28.63549 | -83.28853 | 13554 ft | 384 kts | 157° |
| 2026-04-20 14:16 | 28.61111 | -83.27601 | 13094 ft | 381 kts | 157° |
| 2026-04-20 14:16 | 28.58721 | -83.26372 | 12638 ft | 378 kts | 156° |
| 2026-04-20 14:16 | 28.56329 | -83.25142 | 12169 ft | 376 kts | 156° |
| 2026-04-20 14:16 | 28.53952 | -83.23921 | 11707 ft | 373 kts | 156° |
| 2026-04-20 14:17 | 28.51562 | -83.22694 | 11245 ft | 370 kts | 156° |
| 2026-04-20 14:17 | 28.49223 | -83.21494 | 10789 ft | 367 kts | 155° |
| 2026-04-20 14:17 | 28.46937 | -83.20321 | 10538 ft | 357 kts | 155° |
| 2026-04-20 14:17 | 28.44696 | -83.19172 | 10397 ft | 344 kts | 155° |
| 2026-04-20 14:18 | 28.42545 | -83.18070 | 10251 ft | 331 kts | 155° |
| 2026-04-20 14:18 | 28.40484 | -83.17014 | 10110 ft | 319 kts | 155° |
| 2026-04-20 14:18 | 28.38470 | -83.15987 | 9949 ft | 309 kts | 155° |
| 2026-04-20 14:18 | 28.36507 | -83.15003 | 9578 ft | 307 kts | 155° |
| 2026-04-20 14:19 | 28.34527 | -83.14017 | 9210 ft | 304 kts | 155° |
| 2026-04-20 14:19 | 28.32598 | -83.13055 | 8851 ft | 302 kts | 155° |
| 2026-04-20 14:19 | 28.30663 | -83.12090 | 8492 ft | 299 kts | 155° |
| 2026-04-20 14:19 | 28.28783 | -83.11116 | 8145 ft | 297 kts | 151° |
| 2026-04-20 14:20 | 28.27032 | -83.09863 | 7880 ft | 289 kts | 141° |
| 2026-04-20 14:20 | 28.25475 | -83.08406 | 7902 ft | 290 kts | 137° |
| 2026-04-20 14:20 | 28.23961 | -83.06909 | 7926 ft | 291 kts | 137° |
| 2026-04-20 14:20 | 28.22433 | -83.05393 | 7948 ft | 290 kts | 137° |
| 2026-04-20 14:21 | 28.20896 | -83.03867 | 7969 ft | 290 kts | 135° |
| 2026-04-20 14:21 | 28.19722 | -83.02033 | 7970 ft | 285 kts | 108° |
| 2026-04-20 14:21 | 28.19367 | -82.99854 | 7994 ft | 282 kts | 90° |
| 2026-04-20 14:21 | 28.19282 | -82.97627 | 8002 ft | 282 kts | 89° |
| 2026-04-20 14:22 | 28.19194 | -82.95390 | 8002 ft | 282 kts | 90° |
| 2026-04-20 14:22 | 28.19092 | -82.93169 | 7999 ft | 282 kts | 90° |
| 2026-04-20 14:22 | 28.18979 | -82.90980 | 8020 ft | 272 kts | 91° |
| 2026-04-20 14:22 | 28.18863 | -82.88894 | 7995 ft | 257 kts | 91° |
| 2026-04-20 14:23 | 28.18736 | -82.86924 | 7979 ft | 243 kts | 96° |
| 2026-04-20 14:23 | 28.18097 | -82.85144 | 7967 ft | 249 kts | 128° |
| 2026-04-20 14:23 | 28.16708 | -82.83994 | 8086 ft | 251 kts | 160° |
| 2026-04-20 14:23 | 28.14983 | -82.83787 | 8216 ft | 251 kts | 192° |
| 2026-04-20 14:24 | 28.13383 | -82.84573 | 8304 ft | 246 kts | 216° |
| 2026-04-20 14:24 | 28.11945 | -82.85593 | 8108 ft | 246 kts | 204° |
| 2026-04-20 14:24 | 28.10231 | -82.85943 | 8029 ft | 251 kts | 177° |
| 2026-04-20 14:24 | 28.08477 | -82.85790 | 8013 ft | 252 kts | 174° |
| 2026-04-20 14:25 | 28.06722 | -82.85588 | 7973 ft | 252 kts | 173° |
| 2026-04-20 14:25 | 28.04967 | -82.85365 | 7712 ft | 252 kts | 173° |
| 2026-04-20 14:25 | 28.03247 | -82.85137 | 7398 ft | 250 kts | 173° |
| 2026-04-20 14:25 | 28.01501 | -82.84902 | 7074 ft | 249 kts | 172° |
| 2026-04-20 14:26 | 27.99785 | -82.84670 | 6757 ft | 248 kts | 172° |
| 2026-04-20 14:26 | 27.98058 | -82.84436 | 6437 ft | 246 kts | 172° |
| 2026-04-20 14:26 | 27.96357 | -82.84205 | 6120 ft | 245 kts | 172° |
| 2026-04-20 14:26 | 27.94646 | -82.83974 | 5717 ft | 248 kts | 171° |
| 2026-04-20 14:27 | 27.92932 | -82.83741 | 5329 ft | 250 kts | 170° |
| 2026-04-20 14:27 | 27.91193 | -82.83431 | 4960 ft | 250 kts | 167° |
| 2026-04-20 14:27 | 27.89471 | -82.83086 | 4593 ft | 251 kts | 167° |
| 2026-04-20 14:27 | 27.87763 | -82.82751 | 4327 ft | 246 kts | 167° |
| 2026-04-20 14:28 | 27.86088 | -82.82435 | 4144 ft | 238 kts | 167° |
| 2026-04-20 14:28 | 27.84479 | -82.82142 | 3965 ft | 231 kts | 167° |
| 2026-04-20 14:28 | 27.82871 | -82.81855 | 3791 ft | 229 kts | 166° |
| 2026-04-20 14:28 | 27.81312 | -82.81508 | 3620 ft | 228 kts | 163° |
| 2026-04-20 14:29 | 27.79752 | -82.81125 | 3449 ft | 227 kts | 163° |
| 2026-04-20 14:29 | 27.78203 | -82.80743 | 3274 ft | 225 kts | 163° |
| 2026-04-20 14:29 | 27.76684 | -82.80374 | 3090 ft | 218 kts | 163° |
| 2026-04-20 14:29 | 27.75208 | -82.80022 | 2915 ft | 216 kts | 163° |
| 2026-04-20 14:30 | 27.73733 | -82.79670 | 2744 ft | 216 kts | 162° |
| 2026-04-20 14:30 | 27.72257 | -82.79324 | 2573 ft | 216 kts | 163° |
| 2026-04-20 14:30 | 27.70760 | -82.78976 | 2401 ft | 217 kts | 162° |
| 2026-04-20 14:30 | 27.69277 | -82.78641 | 2230 ft | 217 kts | 163° |
| 2026-04-20 14:31 | 27.67808 | -82.78262 | 2053 ft | 214 kts | 153° |
| 2026-04-20 14:31 | 27.66563 | -82.77400 | 1988 ft | 204 kts | 127° |
| 2026-04-20 14:31 | 27.65782 | -82.76096 | 1992 ft | 196 kts | 108° |
| 2026-04-20 14:31 | 27.65297 | -82.74663 | 1988 ft | 194 kts | 100° |
| 2026-04-20 14:32 | 27.65009 | -82.73190 | 1988 ft | 191 kts | 94° |
| 2026-04-20 14:32 | 27.64895 | -82.71703 | 1984 ft | 189 kts | 84° |
| 2026-04-20 14:32 | 27.64982 | -82.70232 | 1986 ft | 187 kts | 77° |
| 2026-04-20 14:32 | 27.65250 | -82.68798 | 1989 ft | 186 kts | 73° |
| 2026-04-20 14:33 | 27.65601 | -82.67397 | 1987 ft | 185 kts | 67° |
| 2026-04-20 14:33 | 27.66171 | -82.66110 | 1975 ft | 183 kts | 48° |
| 2026-04-20 14:33 | 27.67241 | -82.65363 | 1984 ft | 188 kts | 19° |
| 2026-04-20 14:33 | 27.68563 | -82.65160 | 1990 ft | 192 kts | 5° |
| 2026-04-20 14:34 | 27.69897 | -82.65246 | 1989 ft | 194 kts | 359° |
| 2026-04-20 14:34 | 27.71252 | -82.65443 | 1986 ft | 194 kts | 357° |
| 2026-04-20 14:34 | 27.72598 | -82.65671 | 1987 ft | 194 kts | 356° |
| 2026-04-20 14:34 | 27.73938 | -82.65904 | 1989 ft | 195 kts | 356° |
| 2026-04-20 14:35 | 27.75282 | -82.66138 | 1989 ft | 195 kts | 357° |
| 2026-04-20 14:35 | 27.76628 | -82.66372 | 1989 ft | 193 kts | 356° |
| 2026-04-20 14:35 | 27.77923 | -82.66598 | 2014 ft | 183 kts | 357° |
| 2026-04-20 14:35 | 27.79166 | -82.66813 | 2057 ft | 175 kts | 357° |
| 2026-04-20 14:36 | 27.80331 | -82.67015 | 1898 ft | 160 kts | 358° |
| 2026-04-20 14:36 | 27.81413 | -82.67200 | 1693 ft | 157 kts | 358° |
| 2026-04-20 14:36 | 27.82505 | -82.67385 | 1474 ft | 155 kts | 358° |
| 2026-04-20 14:36 | 27.83550 | -82.67565 | 1266 ft | 147 kts | 358° |
| 2026-04-20 14:37 | 27.84524 | -82.67736 | 1042 ft | 134 kts | 358° |
| 2026-04-20 14:37 | 27.85455 | -82.67893 | 886 ft | 133 kts | 358° |
| 2026-04-20 14:37 | 27.86368 | -82.68049 | 726 ft | 133 kts | 357° |
| 2026-04-20 14:37 | 27.87293 | -82.68211 | 560 ft | 133 kts | 357° |
| 2026-04-20 14:38 | 27.88204 | -82.68366 | 376 ft | 133 kts | 357° |
| 2026-04-20 14:38 | 27.89125 | -82.68515 | 205 ft | 132 kts | 357° |
| 2026-04-20 14:38 | 27.90042 | -82.68678 | 39 ft | 131 kts | 357° |
| 2026-04-20 14:38 | 27.90873 | -82.68815 | 13 ft | 103 kts | 352° |
| 2026-04-20 14:39 | 27.91410 | -82.68909 | 12 ft | 45 kts | 350° |
| 2026-04-20 14:39 | 27.91548 | -82.68949 | 11 ft | 8 kts | 304° |
| 2026-04-20 14:39 | 27.91552 | -82.69012 | 11 ft | 8 kts | 260° |
| 2026-04-20 14:39 | 27.91527 | -82.69074 | 12 ft | 9 kts | 204° |
| 2026-04-20 14:40 | 27.91465 | -82.69075 | 12 ft | 9 kts | 172° |
| 2026-04-20 14:40 | 27.91396 | -82.69065 | 12 ft | 10 kts | 172° |
| 2026-04-20 14:40 | 27.91313 | -82.69049 | 12 ft | 13 kts | 171° |
| 2026-04-20 14:40 | 27.91209 | -82.69031 | 12 ft | 16 kts | 171° |
| 2026-04-20 14:41 | 27.91092 | -82.69011 | 12 ft | 17 kts | 171° |
| 2026-04-20 14:41 | 27.90971 | -82.68991 | 12 ft | 17 kts | 171° |
| 2026-04-20 14:41 | 27.90871 | -82.68973 | 12 ft | 10 kts | 172° |
| 2026-04-20 14:41 | 27.90822 | -82.68967 | 12 ft | 5 kts | 173° |
| 2026-04-20 14:42 | 27.90786 | -82.68977 | 12 ft | 5 kts | 214° |
| 2026-04-20 14:42 | 27.90757 | -82.69006 | 12 ft | 5 kts | 225° |
| 2026-04-20 14:42 | 27.90740 | -82.69026 | 12 ft | 2 kts | 226° |
| 2026-04-20 14:42 | 27.90733 | -82.69034 | 12 ft | 0 kts | 225° |
| 2026-04-20 14:43 | 27.90732 | -82.69036 | 12 ft | 0 kts | 225° |